createdAt,value
2018-08-20T00:01:35.635Z,92.20
2018-08-20T00:04:09.189Z,92.20
2018-08-20T00:06:50.340Z,92.60
2018-08-20T00:09:20.760Z,92.50
2018-08-20T00:11:49.789Z,92.80
2018-08-20T00:14:20.956Z,92.60
2018-08-20T00:16:49.750Z,92.60
2018-08-20T00:19:18.460Z,92.70
2018-08-20T00:21:47.124Z,92.90
2018-08-20T00:24:15.831Z,93.00
2018-08-20T00:26:44.577Z,93.10
2018-08-20T00:29:13.226Z,93.20
2018-08-20T00:31:41.923Z,93.30
2018-08-20T00:34:10.653Z,93.20
2018-08-20T00:36:39.323Z,93.20
2018-08-20T00:39:09.793Z,93.30
2018-08-20T00:41:38.478Z,93.40
2018-08-20T00:44:10.004Z,93.40
2018-08-20T00:46:38.742Z,93.60
2018-08-20T00:49:07.428Z,93.80
2018-08-20T00:51:36.167Z,93.80
2018-08-20T00:54:04.991Z,93.70
2018-08-20T00:56:33.682Z,93.80
2018-08-20T00:59:03.246Z,93.70
2018-08-20T01:01:32.274Z,93.70
2018-08-20T01:04:01.642Z,93.50
2018-08-20T01:06:30.348Z,93.50
2018-08-20T01:08:59.169Z,93.50
2018-08-20T01:11:27.861Z,93.60
2018-08-20T01:13:56.535Z,93.60
2018-08-20T01:16:25.239Z,93.60
2018-08-20T01:18:53.934Z,93.70
2018-08-20T01:21:22.609Z,93.80
2018-08-20T01:23:51.605Z,93.80
2018-08-20T01:26:20.233Z,93.90
2018-08-20T01:28:48.967Z,94.00
2018-08-20T01:31:17.623Z,94.10
2018-08-20T01:33:46.306Z,94.10
2018-08-20T01:36:15.013Z,94.20
2018-08-20T01:38:43.720Z,94.20
2018-08-20T01:41:12.533Z,94.20
2018-08-20T01:43:41.206Z,94.50
2018-08-20T01:46:26.567Z,94.30
2018-08-20T01:48:55.310Z,94.30
2018-08-20T01:51:24.136Z,94.30
2018-08-20T01:53:52.985Z,94.30
2018-08-20T01:56:21.702Z,94.20
2018-08-20T01:58:50.398Z,94.20
2018-08-20T02:01:19.270Z,94.20
2018-08-20T02:03:47.977Z,94.40
2018-08-20T02:06:16.677Z,94.40
2018-08-20T02:08:45.447Z,94.60
2018-08-20T02:11:14.159Z,94.70
2018-08-20T02:13:42.882Z,94.60
2018-08-20T02:16:11.572Z,94.60
2018-08-20T02:18:40.300Z,94.70
2018-08-20T02:21:09.013Z,94.70
2018-08-20T02:23:37.750Z,94.70
2018-08-20T02:26:06.690Z,94.70
2018-08-20T02:28:35.361Z,94.70
2018-08-20T02:31:04.126Z,94.80
2018-08-20T02:33:32.823Z,94.70
2018-08-20T02:36:01.592Z,94.80
2018-08-20T02:38:30.461Z,94.90
2018-08-20T02:40:59.174Z,95.00
2018-08-20T02:43:27.829Z,95.20
2018-08-20T02:45:56.530Z,95.00
2018-08-20T02:48:25.190Z,95.10
2018-08-20T02:50:53.968Z,95.10
2018-08-20T02:53:22.657Z,95.20
2018-08-20T02:55:51.348Z,95.20
2018-08-20T02:58:20.066Z,95.20
2018-08-20T03:00:48.741Z,95.20
2018-08-20T03:03:17.477Z,95.20
2018-08-20T03:05:46.137Z,95.40
2018-08-20T03:08:14.808Z,95.30
2018-08-20T03:10:43.513Z,95.30
2018-08-20T03:13:12.173Z,95.30
2018-08-20T03:15:40.878Z,95.50
2018-08-20T03:18:09.566Z,95.50
2018-08-20T03:20:38.199Z,95.50
2018-08-20T03:23:07.335Z,95.50
2018-08-20T03:25:35.988Z,95.50
2018-08-20T03:28:04.687Z,95.60
2018-08-20T03:30:33.337Z,95.60
2018-08-20T03:33:02.022Z,95.60
2018-08-20T03:35:30.692Z,95.80
2018-08-20T03:37:59.445Z,95.70
2018-08-20T03:40:28.206Z,95.80
2018-08-20T03:42:57.097Z,96.10
2018-08-20T03:45:25.778Z,95.80
2018-08-20T03:47:54.437Z,95.80
2018-08-20T03:50:23.195Z,95.90
2018-08-20T03:52:51.965Z,95.80
2018-08-20T03:55:21.524Z,95.60
2018-08-20T03:57:50.168Z,95.80
2018-08-20T04:00:23.321Z,95.90
2018-08-20T04:02:52.097Z,96.00
2018-08-20T04:05:20.825Z,96.10
2018-08-20T04:07:49.482Z,96.00
2018-08-20T04:10:18.190Z,96.00
2018-08-20T04:12:46.828Z,96.10
2018-08-20T04:15:15.524Z,96.00
2018-08-20T04:17:44.193Z,95.90
2018-08-20T04:20:12.889Z,95.90
2018-08-20T04:22:41.570Z,96.00
2018-08-20T04:25:10.245Z,96.00
2018-08-20T04:27:38.958Z,95.80
2018-08-20T04:30:07.698Z,95.80
2018-08-20T04:32:36.329Z,95.90
2018-08-20T04:35:05.353Z,96.00
2018-08-20T04:37:34.249Z,95.90
2018-08-20T04:40:02.992Z,95.90
2018-08-20T04:42:31.697Z,96.00
2018-08-20T04:45:00.436Z,96.10
2018-08-20T04:47:29.146Z,96.10
2018-08-20T04:49:57.840Z,96.00
2018-08-20T04:52:26.544Z,96.10
2018-08-20T04:54:55.292Z,96.10
2018-08-20T04:57:23.975Z,96.10
2018-08-20T04:59:52.652Z,96.00
2018-08-20T05:02:21.287Z,96.20
2018-08-20T05:04:49.984Z,96.20
2018-08-20T05:07:18.617Z,96.40
2018-08-20T05:09:47.285Z,96.20
2018-08-20T05:12:15.977Z,96.20
2018-08-20T05:14:44.612Z,96.30
2018-08-20T05:17:13.295Z,96.50
2018-08-20T05:19:41.958Z,96.90
2018-08-20T05:22:10.621Z,96.50
2018-08-20T05:24:39.244Z,96.60
2018-08-20T05:27:08.000Z,96.60
2018-08-20T05:29:36.615Z,96.60
2018-08-20T05:32:05.318Z,96.80
2018-08-20T05:34:33.975Z,96.70
2018-08-20T05:37:02.629Z,96.70
2018-08-20T05:39:31.307Z,96.80
2018-08-20T05:41:59.925Z,97.00
2018-08-20T05:44:28.600Z,97.30
2018-08-20T05:46:57.266Z,97.50
2018-08-20T05:49:25.978Z,97.60
2018-08-20T05:51:54.601Z,97.80
2018-08-20T05:54:23.309Z,98.00
2018-08-20T05:56:52.019Z,98.00
2018-08-20T05:59:20.732Z,98.10
2018-08-20T06:01:49.364Z,98.30
2018-08-20T06:04:18.059Z,98.40
2018-08-20T06:06:46.875Z,98.40
2018-08-20T06:09:15.611Z,98.30
2018-08-20T06:11:44.250Z,98.30
2018-08-20T06:14:13.014Z,98.50
2018-08-20T06:16:41.682Z,98.30
2018-08-20T06:19:10.382Z,98.10
2018-08-20T06:21:39.068Z,98.30
2018-08-20T06:24:07.747Z,98.20
2018-08-20T06:26:36.451Z,98.20
2018-08-20T06:29:05.140Z,98.30
2018-08-20T06:31:33.888Z,98.00
2018-08-20T06:34:02.574Z,98.20
2018-08-20T06:36:31.262Z,98.10
2018-08-20T06:38:59.945Z,98.10
2018-08-20T06:41:28.679Z,98.10
2018-08-20T06:43:57.314Z,98.00
2018-08-20T06:46:26.005Z,97.90
2018-08-20T06:48:54.750Z,97.80
2018-08-20T06:51:23.441Z,97.90
2018-08-20T06:53:52.120Z,97.90
2018-08-20T06:56:20.802Z,98.10
2018-08-20T06:58:49.538Z,97.80
2018-08-20T07:01:18.213Z,97.80
2018-08-20T07:03:46.921Z,97.50
2018-08-20T07:06:15.748Z,97.90
2018-08-20T07:08:44.379Z,97.60
2018-08-20T07:11:13.066Z,97.50
2018-08-20T07:13:41.694Z,97.30
2018-08-20T07:16:10.399Z,97.00
2018-08-20T07:18:39.065Z,97.10
2018-08-20T07:21:08.019Z,96.90
2018-08-20T07:23:36.755Z,96.70
2018-08-20T07:26:05.340Z,96.60
2018-08-20T07:28:34.012Z,96.60
2018-08-20T07:31:03.266Z,96.50
2018-08-20T07:33:32.053Z,96.50
2018-08-20T07:36:00.706Z,96.70
2018-08-20T07:38:29.377Z,96.80
2018-08-20T07:40:58.059Z,96.90
2018-08-20T07:43:26.771Z,97.00
2018-08-20T07:45:55.496Z,97.10
2018-08-20T07:48:24.206Z,96.90
2018-08-20T07:50:52.953Z,96.50
2018-08-20T07:53:21.605Z,96.50
2018-08-20T07:55:50.355Z,96.50
2018-08-20T07:58:19.026Z,96.40
2018-08-20T08:00:47.755Z,96.60
2018-08-20T08:03:20.595Z,96.60
2018-08-20T08:05:49.318Z,96.60
2018-08-20T08:08:17.982Z,96.70
2018-08-20T08:10:46.768Z,96.80
2018-08-20T08:13:15.449Z,96.90
2018-08-20T08:15:44.122Z,97.00
2018-08-20T08:18:12.829Z,97.10
2018-08-20T08:20:41.541Z,97.10
2018-08-20T08:23:10.234Z,97.00
2018-08-20T08:25:38.947Z,96.90
2018-08-20T08:28:07.744Z,96.90
2018-08-20T08:30:36.394Z,96.70
2018-08-20T08:33:05.142Z,96.60
2018-08-20T08:35:33.830Z,96.60
2018-08-20T08:38:02.599Z,96.50
2018-08-20T08:40:31.220Z,96.40
2018-08-20T08:42:59.961Z,96.50
2018-08-20T08:45:28.615Z,96.50
2018-08-20T08:47:57.310Z,96.50
2018-08-20T08:50:26.006Z,96.30
2018-08-20T08:52:54.738Z,96.20
2018-08-20T08:55:23.409Z,96.40
2018-08-20T08:57:58.686Z,96.10
2018-08-20T09:00:27.367Z,96.20
2018-08-20T09:02:56.017Z,96.10
2018-08-20T09:05:24.668Z,96.00
2018-08-20T09:07:53.357Z,95.80
2018-08-20T09:10:22.077Z,95.20
2018-08-20T09:12:50.730Z,94.90
2018-08-20T09:15:19.490Z,94.50
2018-08-20T09:17:48.128Z,93.60
2018-08-20T09:20:17.807Z,93.30
2018-08-20T09:22:46.496Z,93.90
2018-08-20T09:25:15.683Z,94.00
2018-08-20T09:27:45.200Z,93.80
2018-08-20T09:30:19.025Z,93.30
2018-08-20T09:32:48.309Z,93.10
2018-08-20T09:35:16.993Z,92.60
2018-08-20T09:37:45.680Z,92.70
2018-08-20T09:40:14.733Z,92.60
2018-08-20T09:42:43.867Z,92.70
2018-08-20T09:45:12.569Z,92.50
2018-08-20T09:47:42.247Z,92.40
2018-08-20T09:50:13.686Z,92.00
2018-08-20T09:52:42.462Z,91.20
2018-08-20T09:55:11.273Z,90.90
2018-08-20T09:57:40.137Z,90.90
2018-08-20T10:00:13.634Z,90.60
2018-08-20T10:02:42.286Z,90.40
2018-08-20T10:05:11.040Z,90.10
2018-08-20T10:07:39.687Z,90.00
2018-08-20T10:10:08.367Z,90.30
2018-08-20T10:12:37.158Z,90.20
2018-08-20T10:15:05.934Z,90.40
2018-08-20T10:17:34.691Z,90.30
2018-08-20T10:20:03.582Z,90.10
2018-08-20T10:22:32.268Z,90.00
2018-08-20T10:25:00.927Z,90.10
2018-08-20T10:27:29.852Z,90.10
2018-08-20T10:29:58.535Z,88.80
2018-08-20T10:32:27.304Z,88.80
2018-08-20T10:34:55.966Z,88.10
2018-08-20T10:37:24.813Z,87.50
2018-08-20T10:39:53.504Z,86.80
2018-08-20T10:42:22.214Z,85.40
2018-08-20T10:44:52.848Z,84.80
2018-08-20T10:47:22.183Z,84.20
2018-08-20T10:49:50.892Z,83.30
2018-08-20T10:52:20.504Z,82.50
2018-08-20T10:54:49.296Z,82.50
2018-08-20T10:57:18.051Z,83.20
2018-08-20T10:59:46.785Z,83.20
2018-08-20T11:02:16.046Z,84.10
2018-08-20T11:04:44.689Z,84.00
2018-08-20T11:07:13.390Z,83.80
2018-08-20T11:09:42.065Z,84.50
2018-08-20T11:12:10.738Z,83.80
2018-08-20T11:14:39.433Z,83.60
2018-08-20T11:17:08.130Z,83.50
2018-08-20T11:19:36.816Z,83.50
2018-08-20T11:22:05.566Z,83.60
2018-08-20T11:24:34.265Z,84.60
2018-08-20T11:27:03.061Z,84.90
2018-08-20T11:29:31.617Z,86.00
2018-08-20T11:32:00.295Z,87.50
2018-08-20T11:34:28.923Z,88.30
2018-08-20T11:36:57.735Z,88.70
2018-08-20T11:39:26.596Z,90.00
2018-08-20T11:41:55.226Z,90.50
2018-08-20T11:44:23.962Z,90.60
2018-08-20T11:46:52.658Z,91.60
2018-08-20T11:49:21.308Z,92.00
2018-08-20T11:51:49.962Z,92.40
2018-08-20T11:54:18.643Z,93.00
2018-08-20T11:56:47.289Z,93.80
2018-08-20T11:59:15.981Z,94.20
2018-08-20T12:01:44.671Z,94.50
2018-08-20T12:04:13.340Z,95.20
2018-08-20T12:06:42.040Z,95.90
2018-08-20T12:09:10.715Z,96.60
2018-08-20T12:11:39.393Z,96.60
2018-08-20T12:14:08.093Z,96.90
2018-08-20T12:16:36.796Z,96.70
2018-08-20T12:19:05.564Z,96.90
2018-08-20T12:21:34.188Z,96.80
2018-08-20T12:24:02.910Z,96.80
2018-08-20T12:26:31.616Z,96.50
2018-08-20T12:29:00.290Z,96.80
2018-08-20T12:31:28.923Z,95.90
2018-08-20T12:33:57.590Z,95.90
2018-08-20T12:36:26.209Z,95.00
2018-08-20T12:38:54.829Z,95.20
2018-08-20T12:41:23.477Z,94.20
2018-08-20T12:43:52.077Z,94.20
2018-08-20T12:46:20.731Z,94.00
2018-08-20T12:48:51.317Z,93.50
2018-08-20T12:51:20.742Z,92.40
2018-08-20T12:53:49.440Z,90.60
2018-08-20T12:56:18.072Z,90.40
2018-08-20T12:58:50.824Z,89.00
2018-08-20T13:01:19.499Z,89.20
2018-08-20T13:03:49.057Z,89.80
2018-08-20T13:06:17.915Z,89.40
2018-08-20T13:08:47.811Z,88.10
2018-08-20T13:11:16.981Z,85.60
2018-08-20T13:13:46.796Z,86.50
2018-08-20T13:16:15.566Z,84.40
2018-08-20T13:18:44.243Z,82.90
2018-08-20T13:21:12.950Z,84.40
2018-08-20T13:23:41.605Z,82.40
2018-08-20T13:26:10.342Z,80.20
2018-08-20T13:28:39.148Z,79.00
2018-08-20T13:31:07.886Z,81.80
2018-08-20T13:33:36.587Z,81.10
2018-08-20T13:36:05.449Z,81.10
2018-08-20T13:38:34.249Z,83.10
2018-08-20T13:41:02.956Z,83.90
2018-08-20T13:43:31.592Z,85.50
2018-08-20T13:46:00.280Z,86.10
2018-08-20T13:48:28.961Z,86.00
2018-08-20T13:50:57.651Z,84.80
2018-08-20T13:53:26.299Z,84.30
2018-08-20T13:55:55.025Z,84.70
2018-08-20T13:58:23.711Z,84.60
2018-08-20T14:00:52.356Z,84.60
2018-08-20T14:03:21.110Z,84.50
2018-08-20T14:05:49.772Z,82.90
2018-08-20T14:08:18.474Z,82.70
2018-08-20T14:10:47.140Z,81.60
2018-08-20T14:13:15.836Z,80.10
2018-08-20T14:15:44.639Z,79.20
2018-08-20T14:18:13.159Z,78.60
2018-08-20T14:20:58.711Z,76.90
2018-08-20T14:23:27.336Z,78.00
2018-08-20T14:25:56.008Z,79.20
2018-08-20T14:28:24.660Z,78.90
2018-08-20T14:30:53.331Z,79.30
2018-08-20T14:33:21.989Z,79.40
2018-08-20T14:35:50.633Z,79.00
2018-08-20T14:38:19.364Z,79.00
2018-08-20T14:40:47.962Z,79.50
2018-08-20T14:43:16.635Z,78.80
2018-08-20T14:46:22.193Z,79.60
2018-08-20T14:48:51.885Z,79.30
2018-08-20T14:51:20.741Z,79.90
2018-08-20T14:53:49.415Z,79.70
2018-08-20T14:56:18.179Z,79.90
2018-08-20T14:58:46.836Z,79.80
2018-08-20T15:01:15.458Z,79.00
2018-08-20T15:03:44.106Z,79.60
2018-08-20T15:06:12.732Z,79.20
2018-08-20T15:08:41.451Z,79.60
2018-08-20T15:11:10.113Z,78.90
2018-08-20T15:13:38.741Z,79.50
2018-08-20T15:16:07.715Z,80.10
2018-08-20T15:18:36.278Z,77.90
2018-08-20T15:21:05.068Z,77.80
2018-08-20T15:23:33.681Z,77.90
2018-08-20T15:26:02.355Z,77.60
2018-08-20T15:28:30.993Z,77.60
2018-08-20T15:30:59.735Z,78.40
2018-08-20T15:33:28.428Z,78.50
2018-08-20T15:35:57.202Z,78.90
2018-08-20T15:38:26.210Z,79.10
2018-08-20T15:40:54.889Z,79.60
2018-08-20T15:43:23.511Z,80.10
2018-08-20T15:45:52.162Z,80.10
2018-08-20T15:48:20.782Z,80.50
2018-08-20T15:50:49.463Z,80.40
2018-08-20T15:53:18.099Z,79.50
2018-08-20T15:55:47.201Z,78.80
2018-08-20T15:58:15.874Z,78.80
2018-08-20T16:00:44.507Z,78.40
2018-08-20T16:03:13.186Z,78.60
2018-08-20T16:05:41.792Z,78.90
2018-08-20T16:08:10.462Z,78.70
2018-08-20T16:10:39.094Z,77.80
2018-08-20T16:13:07.781Z,77.10
2018-08-20T16:15:36.410Z,77.60
2018-08-20T16:18:05.732Z,76.70
2018-08-20T16:20:34.351Z,77.00
2018-08-20T16:23:03.022Z,76.00
2018-08-20T16:25:31.653Z,76.20
2018-08-20T16:28:00.310Z,76.20
2018-08-20T16:30:28.983Z,76.70
2018-08-20T16:32:57.685Z,76.00
2018-08-20T16:35:26.366Z,76.10
2018-08-20T16:37:55.057Z,76.50
2018-08-20T16:40:23.710Z,77.20
2018-08-20T16:42:52.388Z,76.20
2018-08-20T16:45:21.069Z,76.40
2018-08-20T16:47:49.886Z,77.50
2018-08-20T16:50:18.570Z,78.00
2018-08-20T16:52:47.295Z,78.20
2018-08-20T16:55:15.953Z,78.90
2018-08-20T16:57:44.629Z,79.50
2018-08-20T17:00:13.755Z,80.00
2018-08-20T17:02:43.761Z,80.30
2018-08-20T17:05:13.597Z,79.90
2018-08-20T17:07:42.718Z,80.60
2018-08-20T17:10:12.700Z,80.80
2018-08-20T17:12:41.934Z,80.80
2018-08-20T17:15:17.870Z,81.00
2018-08-20T17:17:46.561Z,81.40
2018-08-20T17:20:15.196Z,81.80
2018-08-20T17:22:43.879Z,81.80
2018-08-20T17:25:12.625Z,82.10
2018-08-20T17:27:44.569Z,82.10
2018-08-20T17:30:13.244Z,82.40
2018-08-20T17:32:41.919Z,82.30
2018-08-20T17:35:10.637Z,82.90
2018-08-20T17:37:39.291Z,83.10
2018-08-20T17:40:09.597Z,83.20
2018-08-20T17:42:38.331Z,83.30
2018-08-20T17:45:08.614Z,83.30
2018-08-20T17:47:40.505Z,83.30
2018-08-20T17:50:24.666Z,83.50
2018-08-20T17:52:53.382Z,83.60
2018-08-20T17:55:22.018Z,84.00
2018-08-20T17:57:50.710Z,83.60
2018-08-20T18:00:23.908Z,83.90
2018-08-20T18:02:52.714Z,84.40
2018-08-20T18:05:22.694Z,84.80
2018-08-20T18:07:51.704Z,84.80
2018-08-20T18:10:20.354Z,84.80
2018-08-20T18:12:49.032Z,85.10
2018-08-20T18:15:17.720Z,85.30
2018-08-20T18:17:46.762Z,85.10
2018-08-20T18:20:15.407Z,85.30
2018-08-20T18:22:44.120Z,85.90
2018-08-20T18:25:12.737Z,86.30
2018-08-20T18:27:44.498Z,86.50
2018-08-20T18:30:16.699Z,87.00
2018-08-20T18:32:46.078Z,87.50
2018-08-20T18:35:22.289Z,88.20
2018-08-20T18:37:52.888Z,88.60
2018-08-20T18:40:21.739Z,88.60
2018-08-20T18:42:50.429Z,89.40
2018-08-20T18:45:19.136Z,90.10
2018-08-20T18:47:47.841Z,90.20
2018-08-20T18:50:16.557Z,90.30
2018-08-20T18:52:45.298Z,90.40
2018-08-20T18:55:14.008Z,90.90
2018-08-20T18:57:49.327Z,91.20
2018-08-20T19:00:18.068Z,91.50
2018-08-20T19:02:50.188Z,91.70
2018-08-20T19:05:19.558Z,91.90
2018-08-20T19:07:48.397Z,92.20
2018-08-20T19:10:19.369Z,92.30
2018-08-20T19:12:48.335Z,92.50
2018-08-20T19:15:33.081Z,92.50
2018-08-20T19:18:01.790Z,92.60
2018-08-20T19:20:30.495Z,92.60
2018-08-20T19:22:59.156Z,93.00
2018-08-20T19:25:27.951Z,93.00
2018-08-20T19:27:56.766Z,92.90
2018-08-20T19:30:26.416Z,93.00
2018-08-20T19:32:55.146Z,93.00
2018-08-20T19:35:23.900Z,92.70
2018-08-20T19:37:52.768Z,93.00
2018-08-20T19:40:21.432Z,92.90
2018-08-20T19:42:52.561Z,92.90
2018-08-20T19:45:24.218Z,92.80
2018-08-20T19:47:52.990Z,93.00
2018-08-20T19:57:30.378Z,93.40
2018-08-20T19:59:59.095Z,93.30
2018-08-20T20:02:28.213Z,93.50
2018-08-20T20:05:08.231Z,93.60
2018-08-20T20:08:04.097Z,93.30
2018-08-20T20:10:37.587Z,93.50
2018-08-20T20:13:06.473Z,93.40
2018-08-20T20:15:40.051Z,93.40
2018-08-20T20:18:14.135Z,93.80
2018-08-20T20:20:46.347Z,93.40
2018-08-20T20:23:18.778Z,93.20
2018-08-20T20:25:50.336Z,92.90
2018-08-20T20:28:19.978Z,93.10
2018-08-20T20:30:53.527Z,93.20
2018-08-20T20:33:24.636Z,93.10
2018-08-20T20:35:58.528Z,93.50
2018-08-20T20:38:29.881Z,93.50
2018-08-20T20:41:03.595Z,93.80
2018-08-20T20:43:37.615Z,93.90
2018-08-20T20:46:11.858Z,94.00
2018-08-20T20:48:44.638Z,94.10
2018-08-20T20:51:16.152Z,94.20
2018-08-20T20:53:51.112Z,94.30
2018-08-20T20:56:23.096Z,94.60
2018-08-20T20:58:57.952Z,94.70
2018-08-20T21:01:28.633Z,94.70
2018-08-20T21:04:01.336Z,95.00
2018-08-20T21:06:35.540Z,95.10
2018-08-20T21:09:09.367Z,95.40
2018-08-20T21:11:41.024Z,95.60
2018-08-20T21:14:13.454Z,95.80
2018-08-20T21:16:45.318Z,95.80
2018-08-20T21:19:14.363Z,95.80
2018-08-20T21:21:43.105Z,95.90
2018-08-20T21:24:15.027Z,96.00
2018-08-20T21:26:46.795Z,96.50
2018-08-20T21:29:19.227Z,96.30
2018-08-20T21:31:54.574Z,96.60
2018-08-20T21:34:26.878Z,96.80
2018-08-20T21:36:55.655Z,96.80
2018-08-20T21:39:25.447Z,96.80
2018-08-20T21:41:55.921Z,97.00
2018-08-20T21:44:24.789Z,97.10
2018-08-20T21:46:53.506Z,96.90
2018-08-20T21:49:22.172Z,97.10
2018-08-20T21:51:57.439Z,97.10
2018-08-20T21:54:31.405Z,97.30
2018-08-20T21:57:02.025Z,97.50
2018-08-20T21:59:31.006Z,97.70
2018-08-20T22:01:59.769Z,98.10
2018-08-20T22:04:30.243Z,98.10
2018-08-20T22:06:59.669Z,98.50
2018-08-20T22:09:28.396Z,98.70
2018-08-20T22:11:58.170Z,99.10
2018-08-20T22:14:27.604Z,99.00
2018-08-20T22:16:56.369Z,98.60
2018-08-20T22:19:25.158Z,98.80
2018-08-20T22:21:53.933Z,98.80
2018-08-20T22:24:22.638Z,98.70
2018-08-20T22:26:56.502Z,98.80
2018-08-20T22:29:29.811Z,98.90
2018-08-20T22:31:58.565Z,98.70
2018-08-20T22:34:28.343Z,98.70
2018-08-20T22:37:11.588Z,98.80
2018-08-20T22:39:40.290Z,99.10
2018-08-20T22:42:09.103Z,99.20
2018-08-20T22:44:37.776Z,99.00
2018-08-20T22:47:06.564Z,99.10
2018-08-20T22:49:35.234Z,99.20
2018-08-20T22:52:04.062Z,99.10
2018-08-20T22:54:32.777Z,98.80
2018-08-20T22:57:01.566Z,98.80
2018-08-20T22:59:30.252Z,99.20
2018-08-20T23:01:58.930Z,99.50
2018-08-20T23:04:27.741Z,99.50
2018-08-20T23:06:56.488Z,99.60
2018-08-20T23:09:31.966Z,99.90
2018-08-20T23:12:00.696Z,99.90
2018-08-20T23:14:29.381Z,99.90
2018-08-20T23:16:58.237Z,99.90
2018-08-20T23:19:29.584Z,99.90
2018-08-20T23:21:58.314Z,99.90
2018-08-20T23:24:26.970Z,99.90
2018-08-20T23:26:55.689Z,99.90
2018-08-20T23:29:24.368Z,99.90
2018-08-20T23:31:53.066Z,99.90
2018-08-20T23:34:21.735Z,99.90
2018-08-20T23:36:50.500Z,99.90
2018-08-20T23:39:19.243Z,99.90
2018-08-20T23:41:47.918Z,99.90
2018-08-20T23:44:17.502Z,99.90
2018-08-20T23:46:47.859Z,99.90
2018-08-20T23:49:16.646Z,99.90
2018-08-20T23:51:45.457Z,99.90
2018-08-20T23:54:14.649Z,99.90
2018-08-20T23:56:43.375Z,99.90
2018-08-20T23:59:12.106Z,99.90
